sensor_id;sensor_type;location;lat;lon;timestamp;pressure;altitude;pressure_sealevel;temperature;humidity
7157;BME280;3620;49.862;8.758;2023-03-16T00:00:38;99734.78;;;12.68;43.76
7157;BME280;3620;49.862;8.758;2023-03-16T00:03:07;99734.63;;;12.71;43.46
7157;BME280;3620;49.862;8.758;2023-03-16T00:05:33;99741.16;;;13.01;42.96
7157;BME280;3620;49.862;8.758;2023-03-16T00:08:02;99744.97;;;12.76;42.96
7157;BME280;3620;49.862;8.758;2023-03-16T00:10:28;99753.97;;;12.72;43.35
7157;BME280;3620;49.862;8.758;2023-03-16T00:12:55;99750.84;;;12.64;43.69
7157;BME280;3620;49.862;8.758;2023-03-16T00:15:22;99747.72;;;12.93;43.18
7157;BME280;3620;49.862;8.758;2023-03-16T00:17:49;99742.19;;;13.17;42.56
7157;BME280;3620;49.862;8.758;2023-03-16T00:20:16;99740.44;;;13.16;42.24
7157;BME280;3620;49.862;8.758;2023-03-16T00:22:43;99743.63;;;13.42;41.74
7157;BME280;3620;49.862;8.758;2023-03-16T00:25:12;99746.50;;;12.81;42.71
7157;BME280;3620;49.862;8.758;2023-03-16T00:27:40;99729.22;;;12.74;43.25
7157;BME280;3620;49.862;8.758;2023-03-16T00:30:07;99738.88;;;12.75;42.75
7157;BME280;3620;49.862;8.758;2023-03-16T00:32:35;99735.69;;;12.48;43.48
7157;BME280;3620;49.862;8.758;2023-03-16T00:35:03;99735.69;;;12.67;43.44
7157;BME280;3620;49.862;8.758;2023-03-16T00:37:31;99727.22;;;12.79;43.30
7157;BME280;3620;49.862;8.758;2023-03-16T00:39:58;99725.13;;;13.04;42.72
7157;BME280;3620;49.862;8.758;2023-03-16T00:42:28;99722.59;;;13.21;42.57
7157;BME280;3620;49.862;8.758;2023-03-16T00:44:58;99706.66;;;13.04;42.97
7157;BME280;3620;49.862;8.758;2023-03-16T00:47:27;99712.81;;;12.86;43.23
7157;BME280;3620;49.862;8.758;2023-03-16T00:49:54;99713.44;;;12.91;43.02
7157;BME280;3620;49.862;8.758;2023-03-16T00:52:21;99708.72;;;12.98;43.02
7157;BME280;3620;49.862;8.758;2023-03-16T00:54:48;99712.09;;;12.64;43.65
7157;BME280;3620;49.862;8.758;2023-03-16T00:57:17;99715.16;;;12.55;43.44
7157;BME280;3620;49.862;8.758;2023-03-16T00:59:45;99715.84;;;12.40;44.01
7157;BME280;3620;49.862;8.758;2023-03-16T01:02:12;99714.16;;;12.76;43.37
7157;BME280;3620;49.862;8.758;2023-03-16T01:04:39;99715.00;;;12.58;43.42
7157;BME280;3620;49.862;8.758;2023-03-16T01:07:07;99716.69;;;12.22;43.98
7157;BME280;3620;49.862;8.758;2023-03-16T01:09:35;99713.50;;;12.14;44.44
7157;BME280;3620;49.862;8.758;2023-03-16T01:12:02;99714.31;;;11.96;44.82
7157;BME280;3620;49.862;8.758;2023-03-16T01:14:31;99714.19;;;11.99;44.76
7157;BME280;3620;49.862;8.758;2023-03-16T01:17:00;99706.78;;;11.87;44.91
7157;BME280;3620;49.862;8.758;2023-03-16T01:19:27;99715.97;;;11.56;45.58
7157;BME280;3620;49.862;8.758;2023-03-16T01:21:54;99706.94;;;12.04;45.03
7157;BME280;3620;49.862;8.758;2023-03-16T01:24:20;99712.06;;;12.07;44.67
7157;BME280;3620;49.862;8.758;2023-03-16T01:26:48;99713.78;;;12.28;44.53
7157;BME280;3620;49.862;8.758;2023-03-16T01:29:14;99712.28;;;12.41;44.41
7157;BME280;3620;49.862;8.758;2023-03-16T01:31:41;99709.31;;;11.90;45.30
7157;BME280;3620;49.862;8.758;2023-03-16T01:34:09;99708.16;;;12.35;44.27
7157;BME280;3620;49.862;8.758;2023-03-16T01:36:40;99707.66;;;11.87;44.91
7157;BME280;3620;49.862;8.758;2023-03-16T01:39:08;99713.50;;;11.73;45.64
7157;BME280;3620;49.862;8.758;2023-03-16T01:41:35;99702.34;;;11.68;46.23
7157;BME280;3620;49.862;8.758;2023-03-16T01:44:02;99696.22;;;11.66;45.65
7157;BME280;3620;49.862;8.758;2023-03-16T01:46:31;99695.06;;;11.94;45.16
7157;BME280;3620;49.862;8.758;2023-03-16T01:49:01;99692.19;;;11.80;45.32
7157;BME280;3620;49.862;8.758;2023-03-16T01:51:35;99680.47;;;11.65;45.95
7157;BME280;3620;49.862;8.758;2023-03-16T01:54:05;99681.66;;;11.80;45.61
7157;BME280;3620;49.862;8.758;2023-03-16T01:56:35;99678.59;;;11.68;45.89
7157;BME280;3620;49.862;8.758;2023-03-16T01:59:07;99668.91;;;11.69;46.08
7157;BME280;3620;49.862;8.758;2023-03-16T02:01:35;99674.34;;;11.64;45.96
7157;BME280;3620;49.862;8.758;2023-03-16T02:04:10;99675.97;;;11.89;44.99
7157;BME280;3620;49.862;8.758;2023-03-16T02:06:39;99674.72;;;11.35;46.30
7157;BME280;3620;49.862;8.758;2023-03-16T02:09:07;99673.50;;;11.22;46.40
7157;BME280;3620;49.862;8.758;2023-03-16T02:11:34;99676.31;;;11.39;46.31
7157;BME280;3620;49.862;8.758;2023-03-16T02:14:03;99668.09;;;11.25;46.24
7157;BME280;3620;49.862;8.758;2023-03-16T02:16:31;99662.75;;;11.48;46.11
7157;BME280;3620;49.862;8.758;2023-03-16T02:18:58;99654.84;;;11.48;45.88
7157;BME280;3620;49.862;8.758;2023-03-16T02:21:29;99656.94;;;11.82;45.59
7157;BME280;3620;49.862;8.758;2023-03-16T02:24:00;99655.78;;;11.88;45.57
7157;BME280;3620;49.862;8.758;2023-03-16T02:26:34;99653.56;;;11.78;45.78
7157;BME280;3620;49.862;8.758;2023-03-16T02:29:14;99660.25;;;12.06;45.61
7157;BME280;3620;49.862;8.758;2023-03-16T02:31:45;99664.47;;;12.48;44.33
7157;BME280;3620;49.862;8.758;2023-03-16T02:34:12;99662.09;;;12.24;45.01
7157;BME280;3620;49.862;8.758;2023-03-16T02:36:41;99660.94;;;12.29;44.53
7157;BME280;3620;49.862;8.758;2023-03-16T02:39:08;99652.94;;;12.12;44.88
7157;BME280;3620;49.862;8.758;2023-03-16T02:41:35;99647.16;;;12.23;45.04
7157;BME280;3620;49.862;8.758;2023-03-16T02:44:05;99641.22;;;12.18;44.76
7157;BME280;3620;49.862;8.758;2023-03-16T02:46:35;99651.78;;;11.79;45.33
7157;BME280;3620;49.862;8.758;2023-03-16T02:49:06;99648.00;;;12.05;45.20
7157;BME280;3620;49.862;8.758;2023-03-16T02:51:33;99643.38;;;12.10;44.96
7157;BME280;3620;49.862;8.758;2023-03-16T02:54:00;99635.84;;;12.21;44.30
7157;BME280;3620;49.862;8.758;2023-03-16T02:56:26;99633.56;;;12.32;44.58
7157;BME280;3620;49.862;8.758;2023-03-16T02:58:52;99628.69;;;12.23;44.50
7157;BME280;3620;49.862;8.758;2023-03-16T03:01:21;99633.06;;;11.85;45.35
7157;BME280;3620;49.862;8.758;2023-03-16T03:03:48;99634.91;;;11.83;44.84
7157;BME280;3620;49.862;8.758;2023-03-16T03:06:15;99640.28;;;11.40;45.56
7157;BME280;3620;49.862;8.758;2023-03-16T03:08:42;99637.63;;;10.98;46.86
7157;BME280;3620;49.862;8.758;2023-03-16T03:11:08;99623.47;;;11.22;47.11
7157;BME280;3620;49.862;8.758;2023-03-16T03:13:35;99629.09;;;10.93;47.15
7157;BME280;3620;49.862;8.758;2023-03-16T03:16:03;99624.75;;;10.70;47.66
7157;BME280;3620;49.862;8.758;2023-03-16T03:18:30;99622.41;;;11.06;47.83
7157;BME280;3620;49.862;8.758;2023-03-16T03:20:56;99618.47;;;11.56;45.68
7157;BME280;3620;49.862;8.758;2023-03-16T03:23:24;99622.25;;;11.31;46.13
7157;BME280;3620;49.862;8.758;2023-03-16T03:25:51;99617.19;;;11.66;45.39
7157;BME280;3620;49.862;8.758;2023-03-16T03:28:18;99609.59;;;11.59;45.65
7157;BME280;3620;49.862;8.758;2023-03-16T03:30:44;99607.88;;;11.58;45.57
7157;BME280;3620;49.862;8.758;2023-03-16T03:33:11;99605.84;;;11.44;45.69
7157;BME280;3620;49.862;8.758;2023-03-16T03:35:37;99610.31;;;11.42;45.83
7157;BME280;3620;49.862;8.758;2023-03-16T03:38:06;99617.72;;;10.71;47.83
7157;BME280;3620;49.862;8.758;2023-03-16T03:40:34;99605.59;;;9.74;50.21
7157;BME280;3620;49.862;8.758;2023-03-16T03:43:00;99616.66;;;9.34;51.64
7157;BME280;3620;49.862;8.758;2023-03-16T03:45:27;99620.75;;;8.63;53.99
7157;BME280;3620;49.862;8.758;2023-03-16T03:47:53;99623.69;;;9.08;52.82
7157;BME280;3620;49.862;8.758;2023-03-16T03:50:20;99620.84;;;8.32;54.97
7157;BME280;3620;49.862;8.758;2023-03-16T03:52:47;99620.22;;;8.23;55.05
7157;BME280;3620;49.862;8.758;2023-03-16T03:55:14;99614.69;;;8.04;55.95
7157;BME280;3620;49.862;8.758;2023-03-16T03:57:42;99614.56;;;8.07;56.20
7157;BME280;3620;49.862;8.758;2023-03-16T04:00:09;99616.47;;;8.88;54.08
7157;BME280;3620;49.862;8.758;2023-03-16T04:02:36;99621.13;;;8.78;53.55
7157;BME280;3620;49.862;8.758;2023-03-16T04:05:03;99612.03;;;8.35;55.57
7157;BME280;3620;49.862;8.758;2023-03-16T04:07:29;99622.66;;;8.85;54.03
7157;BME280;3620;49.862;8.758;2023-03-16T04:09:56;99617.34;;;8.33;55.66
7157;BME280;3620;49.862;8.758;2023-03-16T04:12:22;99616.66;;;8.54;55.31
7157;BME280;3620;49.862;8.758;2023-03-16T04:14:50;99614.94;;;8.53;55.30
7157;BME280;3620;49.862;8.758;2023-03-16T04:17:17;99622.88;;;9.06;54.31
7157;BME280;3620;49.862;8.758;2023-03-16T04:19:43;99620.38;;;9.27;53.38
7157;BME280;3620;49.862;8.758;2023-03-16T04:22:10;99631.53;;;8.81;54.33
7157;BME280;3620;49.862;8.758;2023-03-16T04:24:37;99626.59;;;9.25;53.21
7157;BME280;3620;49.862;8.758;2023-03-16T04:27:03;99621.16;;;10.03;51.22
7157;BME280;3620;49.862;8.758;2023-03-16T04:29:30;99616.75;;;9.56;51.38
7157;BME280;3620;49.862;8.758;2023-03-16T04:31:58;99610.81;;;9.51;52.03
7157;BME280;3620;49.862;8.758;2023-03-16T04:34:25;99606.75;;;9.16;53.32
7157;BME280;3620;49.862;8.758;2023-03-16T04:36:52;99599.47;;;10.21;50.97
7157;BME280;3620;49.862;8.758;2023-03-16T04:39:18;99607.19;;;9.29;52.22
7157;BME280;3620;49.862;8.758;2023-03-16T04:41:45;99599.59;;;8.41;54.83
7157;BME280;3620;49.862;8.758;2023-03-16T04:44:12;99601.47;;;8.65;54.88
7157;BME280;3620;49.862;8.758;2023-03-16T04:46:39;99594.66;;;8.60;54.99
7157;BME280;3620;49.862;8.758;2023-03-16T04:49:07;99595.28;;;8.11;56.57
7157;BME280;3620;49.862;8.758;2023-03-16T04:51:34;99598.59;;;8.45;55.60
7157;BME280;3620;49.862;8.758;2023-03-16T04:54:00;99602.47;;;8.61;55.38
7157;BME280;3620;49.862;8.758;2023-03-16T04:56:27;99594.41;;;8.94;53.95
7157;BME280;3620;49.862;8.758;2023-03-16T04:58:53;99580.94;;;9.29;53.56
7157;BME280;3620;49.862;8.758;2023-03-16T05:01:21;99580.41;;;8.67;55.30
7157;BME280;3620;49.862;8.758;2023-03-16T05:03:48;99587.63;;;8.60;54.99
7157;BME280;3620;49.862;8.758;2023-03-16T05:06:16;99589.69;;;9.29;52.87
7157;BME280;3620;49.862;8.758;2023-03-16T05:08:43;99588.19;;;9.95;52.07
7157;BME280;3620;49.862;8.758;2023-03-16T05:11:09;99585.03;;;9.62;52.57
7157;BME280;3620;49.862;8.758;2023-03-16T05:13:36;99589.13;;;9.69;52.88
7157;BME280;3620;49.862;8.758;2023-03-16T05:16:02;99596.94;;;9.47;54.31
7157;BME280;3620;49.862;8.758;2023-03-16T05:18:29;99599.19;;;8.55;55.90
7157;BME280;3620;49.862;8.758;2023-03-16T05:20:57;99589.84;;;9.74;52.57
7157;BME280;3620;49.862;8.758;2023-03-16T05:23:25;99594.41;;;9.92;52.18
7157;BME280;3620;49.862;8.758;2023-03-16T05:25:52;99594.94;;;8.51;55.46
7157;BME280;3620;49.862;8.758;2023-03-16T05:28:18;99600.72;;;8.88;55.09
7157;BME280;3620;49.862;8.758;2023-03-16T05:30:45;99588.69;;;8.55;55.87
7157;BME280;3620;49.862;8.758;2023-03-16T05:33:12;99587.25;;;8.99;54.51
7157;BME280;3620;49.862;8.758;2023-03-16T05:35:38;99588.13;;;8.45;56.21
7157;BME280;3620;49.862;8.758;2023-03-16T05:38:06;99582.28;;;9.16;53.44
7157;BME280;3620;49.862;8.758;2023-03-16T05:40:35;99579.34;;;9.25;53.80
7157;BME280;3620;49.862;8.758;2023-03-16T05:43:02;99582.16;;;8.94;54.98
7157;BME280;3620;49.862;8.758;2023-03-16T05:45:29;99584.91;;;9.16;54.19
7157;BME280;3620;49.862;8.758;2023-03-16T05:47:56;99587.09;;;8.49;54.67
7157;BME280;3620;49.862;8.758;2023-03-16T05:50:22;99567.25;;;7.84;57.03
7157;BME280;3620;49.862;8.758;2023-03-16T05:52:50;99574.66;;;7.99;57.44
7157;BME280;3620;49.862;8.758;2023-03-16T05:55:17;99575.78;;;7.90;57.21
7157;BME280;3620;49.862;8.758;2023-03-16T05:57:45;99578.28;;;7.95;57.64
7157;BME280;3620;49.862;8.758;2023-03-16T06:00:13;99568.53;;;7.71;58.71
7157;BME280;3620;49.862;8.758;2023-03-16T06:02:41;99567.53;;;8.04;56.98
7157;BME280;3620;49.862;8.758;2023-03-16T06:05:08;99573.19;;;8.75;55.57
7157;BME280;3620;49.862;8.758;2023-03-16T06:07:35;99562.94;;;9.68;52.95
7157;BME280;3620;49.862;8.758;2023-03-16T06:10:03;99571.13;;;10.06;51.66
7157;BME280;3620;49.862;8.758;2023-03-16T06:12:30;99568.47;;;10.29;51.84
7157;BME280;3620;49.862;8.758;2023-03-16T06:15:00;99566.78;;;10.28;51.66
7157;BME280;3620;49.862;8.758;2023-03-16T06:17:26;99573.31;;;10.18;51.34
7157;BME280;3620;49.862;8.758;2023-03-16T06:19:53;99570.31;;;10.49;51.09
7157;BME280;3620;49.862;8.758;2023-03-16T06:22:19;99561.66;;;10.69;50.13
7157;BME280;3620;49.862;8.758;2023-03-16T06:24:46;99572.50;;;11.03;50.51
7157;BME280;3620;49.862;8.758;2023-03-16T06:27:13;99565.34;;;11.07;50.59
7157;BME280;3620;49.862;8.758;2023-03-16T06:29:39;99564.22;;;11.12;49.85
7157;BME280;3620;49.862;8.758;2023-03-16T06:32:07;99555.91;;;11.61;48.24
7157;BME280;3620;49.862;8.758;2023-03-16T06:34:33;99558.16;;;11.50;48.66
7157;BME280;3620;49.862;8.758;2023-03-16T06:37:01;99560.78;;;11.50;49.63
7157;BME280;3620;49.862;8.758;2023-03-16T06:39:28;99568.16;;;11.62;49.23
7157;BME280;3620;49.862;8.758;2023-03-16T06:41:54;99571.47;;;11.67;49.07
7157;BME280;3620;49.862;8.758;2023-03-16T06:44:21;99573.41;;;11.62;49.29
7157;BME280;3620;49.862;8.758;2023-03-16T06:46:47;99578.69;;;11.83;49.11
7157;BME280;3620;49.862;8.758;2023-03-16T06:49:15;99579.47;;;11.64;49.24
7157;BME280;3620;49.862;8.758;2023-03-16T06:51:41;99572.59;;;12.01;49.32
7157;BME280;3620;49.862;8.758;2023-03-16T06:54:08;99582.00;;;12.25;48.14
7157;BME280;3620;49.862;8.758;2023-03-16T06:56:34;99580.09;;;12.28;48.05
7157;BME280;3620;49.862;8.758;2023-03-16T06:59:01;99585.31;;;11.91;48.56
7157;BME280;3620;49.862;8.758;2023-03-16T07:01:27;99577.50;;;12.27;47.87
7157;BME280;3620;49.862;8.758;2023-03-16T07:03:54;99584.50;;;12.46;47.18
7157;BME280;3620;49.862;8.758;2023-03-16T07:06:22;99585.66;;;12.41;47.89
7157;BME280;3620;49.862;8.758;2023-03-16T07:08:48;99589.53;;;12.51;47.86
7157;BME280;3620;49.862;8.758;2023-03-16T07:11:15;99586.06;;;12.32;48.30
7157;BME280;3620;49.862;8.758;2023-03-16T07:13:42;99586.50;;;12.23;47.99
7157;BME280;3620;49.862;8.758;2023-03-16T07:16:09;99578.81;;;12.37;48.32
7157;BME280;3620;49.862;8.758;2023-03-16T07:18:36;99581.94;;;12.08;48.23
7157;BME280;3620;49.862;8.758;2023-03-16T07:21:04;99578.06;;;12.52;47.23
7157;BME280;3620;49.862;8.758;2023-03-16T07:23:32;99580.44;;;12.21;48.03
7157;BME280;3620;49.862;8.758;2023-03-16T07:25:58;99581.09;;;12.26;47.58
7157;BME280;3620;49.862;8.758;2023-03-16T07:28:25;99578.06;;;12.52;47.61
7157;BME280;3620;49.862;8.758;2023-03-16T07:30:52;99580.16;;;12.81;46.95
7157;BME280;3620;49.862;8.758;2023-03-16T07:33:18;99578.09;;;12.69;47.82
7157;BME280;3620;49.862;8.758;2023-03-16T07:35:45;99584.47;;;12.65;48.08
7157;BME280;3620;49.862;8.758;2023-03-16T07:38:11;99583.31;;;12.35;48.81
7157;BME280;3620;49.862;8.758;2023-03-16T07:40:39;99582.78;;;12.27;49.04
7157;BME280;3620;49.862;8.758;2023-03-16T07:43:06;99583.91;;;12.40;49.49
7157;BME280;3620;49.862;8.758;2023-03-16T07:45:32;99583.22;;;12.55;48.67
7157;BME280;3620;49.862;8.758;2023-03-16T07:47:59;99583.03;;;12.77;49.69
7157;BME280;3620;49.862;8.758;2023-03-16T07:50:26;99579.47;;;13.31;48.46
7157;BME280;3620;49.862;8.758;2023-03-16T07:52:52;99571.19;;;13.71;47.62
7157;BME280;3620;49.862;8.758;2023-03-16T07:55:19;99572.22;;;14.17;47.41
7157;BME280;3620;49.862;8.758;2023-03-16T07:57:47;99569.16;;;14.09;46.98
7157;BME280;3620;49.862;8.758;2023-03-16T08:00:14;99558.44;;;14.43;45.80
7157;BME280;3620;49.862;8.758;2023-03-16T08:02:41;99562.50;;;14.17;47.08
7157;BME280;3620;49.862;8.758;2023-03-16T08:05:07;99564.53;;;14.12;48.36
7157;BME280;3620;49.862;8.758;2023-03-16T08:07:35;99567.91;;;14.31;47.07
7157;BME280;3620;49.862;8.758;2023-03-16T08:10:02;99560.25;;;14.10;48.38
7157;BME280;3620;49.862;8.758;2023-03-16T08:12:28;99558.34;;;14.44;47.32
7157;BME280;3620;49.862;8.758;2023-03-16T08:14:57;99553.66;;;14.49;47.33
7157;BME280;3620;49.862;8.758;2023-03-16T08:17:23;99548.75;;;14.89;47.61
7157;BME280;3620;49.862;8.758;2023-03-16T08:19:50;99548.69;;;15.20;46.34
7157;BME280;3620;49.862;8.758;2023-03-16T08:22:17;99555.88;;;14.73;46.40
7157;BME280;3620;49.862;8.758;2023-03-16T08:24:43;99554.53;;;15.25;46.05
7157;BME280;3620;49.862;8.758;2023-03-16T08:27:10;99552.09;;;15.22;46.33
7157;BME280;3620;49.862;8.758;2023-03-16T08:29:37;99557.78;;;15.30;46.13
7157;BME280;3620;49.862;8.758;2023-03-16T08:32:06;99556.44;;;15.67;45.01
7157;BME280;3620;49.862;8.758;2023-03-16T08:34:33;99549.91;;;15.72;45.67
7157;BME280;3620;49.862;8.758;2023-03-16T08:37:00;99549.34;;;15.81;44.64
7157;BME280;3620;49.862;8.758;2023-03-16T08:39:27;99555.78;;;15.91;44.42
7157;BME280;3620;49.862;8.758;2023-03-16T08:41:53;99546.47;;;15.56;45.68
7157;BME280;3620;49.862;8.758;2023-03-16T08:44:21;99547.94;;;15.62;45.46
7157;BME280;3620;49.862;8.758;2023-03-16T08:46:48;99545.56;;;15.57;46.17
7157;BME280;3620;49.862;8.758;2023-03-16T08:49:17;99545.09;;;15.79;45.46
7157;BME280;3620;49.862;8.758;2023-03-16T08:51:45;99540.16;;;16.01;44.55
7157;BME280;3620;49.862;8.758;2023-03-16T08:54:11;99544.78;;;16.26;43.97
7157;BME280;3620;49.862;8.758;2023-03-16T08:56:39;99535.50;;;16.04;44.34
7157;BME280;3620;49.862;8.758;2023-03-16T08:59:06;99538.34;;;15.59;44.80
7157;BME280;3620;49.862;8.758;2023-03-16T09:01:33;99540.91;;;15.89;44.59
7157;BME280;3620;49.862;8.758;2023-03-16T09:03:59;99546.84;;;16.21;44.43
7157;BME280;3620;49.862;8.758;2023-03-16T09:06:29;99546.84;;;16.21;43.99
7157;BME280;3620;49.862;8.758;2023-03-16T09:08:55;99540.38;;;16.39;43.65
7157;BME280;3620;49.862;8.758;2023-03-16T09:11:23;99538.50;;;16.55;43.65
7157;BME280;3620;49.862;8.758;2023-03-16T09:13:52;99529.31;;;16.73;43.46
7157;BME280;3620;49.862;8.758;2023-03-16T09:16:19;99527.00;;;16.81;43.29
7157;BME280;3620;49.862;8.758;2023-03-16T09:18:49;99532.03;;;16.59;43.67
7157;BME280;3620;49.862;8.758;2023-03-16T09:21:16;99528.38;;;17.13;43.23
7157;BME280;3620;49.862;8.758;2023-03-16T09:23:45;99529.25;;;16.87;43.39
7157;BME280;3620;49.862;8.758;2023-03-16T09:26:12;99527.34;;;17.28;43.26
7157;BME280;3620;49.862;8.758;2023-03-16T09:28:40;99524.41;;;17.71;41.94
7157;BME280;3620;49.862;8.758;2023-03-16T09:31:08;99517.22;;;17.33;41.81
7157;BME280;3620;49.862;8.758;2023-03-16T09:33:35;99527.47;;;17.90;41.90
7157;BME280;3620;49.862;8.758;2023-03-16T09:36:02;99530.22;;;18.01;41.21
7157;BME280;3620;49.862;8.758;2023-03-16T09:38:29;99526.72;;;18.00;40.95
7157;BME280;3620;49.862;8.758;2023-03-16T09:41:00;99520.72;;;18.09;40.34
7157;BME280;3620;49.862;8.758;2023-03-16T09:43:41;99515.63;;;18.19;40.32
7157;BME280;3620;49.862;8.758;2023-03-16T09:46:13;99526.13;;;18.33;39.50
7157;BME280;3620;49.862;8.758;2023-03-16T09:48:41;99513.97;;;18.29;39.25
7157;BME280;3620;49.862;8.758;2023-03-16T09:51:16;99510.81;;;18.24;38.94
7157;BME280;3620;49.862;8.758;2023-03-16T09:53:46;99514.06;;;18.53;39.33
7157;BME280;3620;49.862;8.758;2023-03-16T09:56:23;99511.56;;;18.86;38.73
7157;BME280;3620;49.862;8.758;2023-03-16T09:58:51;99505.25;;;18.63;38.54
7157;BME280;3620;49.862;8.758;2023-03-16T10:01:25;99510.69;;;18.85;37.84
7157;BME280;3620;49.862;8.758;2023-03-16T10:04:08;99515.47;;;18.46;38.36
7157;BME280;3620;49.862;8.758;2023-03-16T10:06:45;99509.09;;;18.83;38.30
7157;BME280;3620;49.862;8.758;2023-03-16T10:09:23;99513.16;;;19.34;37.24
7157;BME280;3620;49.862;8.758;2023-03-16T10:11:56;99499.97;;;19.33;36.59
7157;BME280;3620;49.862;8.758;2023-03-16T10:14:26;99514.28;;;18.97;37.77
7157;BME280;3620;49.862;8.758;2023-03-16T10:16:58;99507.31;;;19.53;36.87
7157;BME280;3620;49.862;8.758;2023-03-16T10:19:33;99506.09;;;19.57;37.05
7157;BME280;3620;49.862;8.758;2023-03-16T10:22:12;99510.38;;;19.82;36.43
7157;BME280;3620;49.862;8.758;2023-03-16T10:24:46;99507.56;;;19.72;36.39
7157;BME280;3620;49.862;8.758;2023-03-16T10:27:23;99503.91;;;19.51;36.71
7157;BME280;3620;49.862;8.758;2023-03-16T10:29:51;99503.56;;;19.89;35.91
7157;BME280;3620;49.862;8.758;2023-03-16T10:32:18;99508.28;;;20.07;35.53
7157;BME280;3620;49.862;8.758;2023-03-16T10:34:51;99503.44;;;20.01;35.60
7157;BME280;3620;49.862;8.758;2023-03-16T10:37:19;99505.41;;;19.99;36.12
7157;BME280;3620;49.862;8.758;2023-03-16T10:39:47;99505.75;;;20.17;35.55
7157;BME280;3620;49.862;8.758;2023-03-16T10:42:15;99505.31;;;20.66;34.62
7157;BME280;3620;49.862;8.758;2023-03-16T10:44:44;99499.72;;;20.69;35.08
7157;BME280;3620;49.862;8.758;2023-03-16T10:47:18;99504.41;;;20.33;36.18
7157;BME280;3620;49.862;8.758;2023-03-16T10:49:46;99507.44;;;20.07;36.15
7157;BME280;3620;49.862;8.758;2023-03-16T10:52:18;99500.41;;;19.27;37.14
7157;BME280;3620;49.862;8.758;2023-03-16T10:54:51;99492.75;;;19.57;36.75
7157;BME280;3620;49.862;8.758;2023-03-16T10:57:22;99495.94;;;20.06;36.52
7157;BME280;3620;49.862;8.758;2023-03-16T10:59:52;99494.19;;;19.39;38.01
7157;BME280;3620;49.862;8.758;2023-03-16T11:02:20;99499.28;;;19.42;37.32
7157;BME280;3620;49.862;8.758;2023-03-16T11:04:47;99495.44;;;19.79;37.21
7157;BME280;3620;49.862;8.758;2023-03-16T11:07:15;99483.75;;;19.58;36.85
7157;BME280;3620;49.862;8.758;2023-03-16T11:09:43;99476.47;;;19.60;36.76
7157;BME280;3620;49.862;8.758;2023-03-16T11:12:13;99471.59;;;20.20;36.03
7157;BME280;3620;49.862;8.758;2023-03-16T11:14:42;99475.03;;;19.78;37.14
7157;BME280;3620;49.862;8.758;2023-03-16T11:17:13;99472.41;;;19.32;37.34
7157;BME280;3620;49.862;8.758;2023-03-16T11:19:48;99479.06;;;19.84;37.19
7157;BME280;3620;49.862;8.758;2023-03-16T11:22:18;99476.97;;;19.76;37.67
7157;BME280;3620;49.862;8.758;2023-03-16T11:24:49;99476.50;;;20.15;36.73
7157;BME280;3620;49.862;8.758;2023-03-16T11:27:21;99467.28;;;19.97;37.34
7157;BME280;3620;49.862;8.758;2023-03-16T11:30:09;99462.53;;;19.67;37.73
7157;BME280;3620;49.862;8.758;2023-03-16T11:32:45;99453.94;;;19.75;38.15
7157;BME280;3620;49.862;8.758;2023-03-16T11:35:15;99461.66;;;20.11;37.23
7157;BME280;3620;49.862;8.758;2023-03-16T11:38:04;99452.50;;;20.47;36.65
7157;BME280;3620;49.862;8.758;2023-03-16T11:40:42;99450.03;;;20.23;37.19
7157;BME280;3620;49.862;8.758;2023-03-16T11:43:24;99448.09;;;19.92;37.54
7157;BME280;3620;49.862;8.758;2023-03-16T11:46:08;99448.78;;;20.70;36.52
7157;BME280;3620;49.862;8.758;2023-03-16T11:48:39;99448.44;;;20.64;35.90
7157;BME280;3620;49.862;8.758;2023-03-16T11:51:10;99447.22;;;20.03;37.01
7157;BME280;3620;49.862;8.758;2023-03-16T11:53:49;99433.97;;;20.34;36.60
7157;BME280;3620;49.862;8.758;2023-03-16T11:56:30;99439.31;;;20.34;37.30
7157;BME280;3620;49.862;8.758;2023-03-16T11:59:06;99427.84;;;20.96;36.98
7157;BME280;3620;49.862;8.758;2023-03-16T12:01:48;99430.53;;;20.75;37.43
7157;BME280;3620;49.862;8.758;2023-03-16T12:04:29;99425.81;;;20.68;37.92
7157;BME280;3620;49.862;8.758;2023-03-16T12:07:14;99411.09;;;20.94;36.94
7157;BME280;3620;49.862;8.758;2023-03-16T12:12:35;99409.66;;;20.37;37.01
7157;BME280;3620;49.862;8.758;2023-03-16T12:15:22;99408.72;;;20.27;37.48
7157;BME280;3620;49.862;8.758;2023-03-16T12:17:55;99404.13;;;21.23;36.28
7157;BME280;3620;49.862;8.758;2023-03-16T12:20:27;99393.50;;;21.33;34.91
7157;BME280;3620;49.862;8.758;2023-03-16T12:22:58;99394.88;;;21.87;34.08
7157;BME280;3620;49.862;8.758;2023-03-16T12:25:30;99394.94;;;21.76;33.95
7157;BME280;3620;49.862;8.758;2023-03-16T12:27:59;99385.63;;;22.49;33.22
7157;BME280;3620;49.862;8.758;2023-03-16T12:30:36;99397.41;;;23.52;31.97
7157;BME280;3620;49.862;8.758;2023-03-16T12:33:08;99400.59;;;23.65;31.33
7157;BME280;3620;49.862;8.758;2023-03-16T12:35:43;99397.34;;;23.71;31.27
7157;BME280;3620;49.862;8.758;2023-03-16T12:38:27;99390.47;;;23.86;30.79
7157;BME280;3620;49.862;8.758;2023-03-16T12:41:07;99395.28;;;23.55;31.41
7157;BME280;3620;49.862;8.758;2023-03-16T12:43:46;99391.19;;;22.95;30.49
7157;BME280;3620;49.862;8.758;2023-03-16T12:46:24;99393.03;;;23.51;30.78
7157;BME280;3620;49.862;8.758;2023-03-16T12:48:55;99389.66;;;23.76;30.18
7157;BME280;3620;49.862;8.758;2023-03-16T12:51:33;99380.47;;;23.32;29.64
7157;BME280;3620;49.862;8.758;2023-03-16T12:54:00;99380.00;;;23.83;30.07
7157;BME280;3620;49.862;8.758;2023-03-16T12:56:30;99375.19;;;24.14;30.27
7157;BME280;3620;49.862;8.758;2023-03-16T12:58:59;99373.59;;;24.38;30.31
7157;BME280;3620;49.862;8.758;2023-03-16T13:01:27;99366.59;;;24.81;27.92
7157;BME280;3620;49.862;8.758;2023-03-16T13:04:00;99366.91;;;24.42;29.02
7157;BME280;3620;49.862;8.758;2023-03-16T13:06:33;99359.22;;;24.12;29.28
7157;BME280;3620;49.862;8.758;2023-03-16T13:09:03;99346.63;;;24.30;28.95
7157;BME280;3620;49.862;8.758;2023-03-16T13:11:39;99355.53;;;24.13;28.91
7157;BME280;3620;49.862;8.758;2023-03-16T13:14:08;99348.34;;;25.18;28.82
7157;BME280;3620;49.862;8.758;2023-03-16T13:16:39;99354.50;;;25.28;28.54
7157;BME280;3620;49.862;8.758;2023-03-16T13:19:25;99344.09;;;24.46;28.53
7157;BME280;3620;49.862;8.758;2023-03-16T13:22:16;99337.63;;;24.57;28.48
7157;BME280;3620;49.862;8.758;2023-03-16T13:24:50;99337.50;;;25.02;27.53
7157;BME280;3620;49.862;8.758;2023-03-16T13:27:20;99338.16;;;24.60;27.95
7157;BME280;3620;49.862;8.758;2023-03-16T13:29:55;99334.53;;;24.69;28.37
7157;BME280;3620;49.862;8.758;2023-03-16T13:32:23;99330.03;;;24.52;28.42
7157;BME280;3620;49.862;8.758;2023-03-16T13:34:52;99329.09;;;24.61;28.18
7157;BME280;3620;49.862;8.758;2023-03-16T13:37:23;99334.88;;;24.49;28.07